Fort William, United Kingdom
Current Conditions -  °F | °C
As of 1:20 PM on Saturday 25 Oct 2014 (Local Time) from EGPE Reporting Station
Few Clouds Few Clouds  
Wind Chill: 54°   Ceiling: Unl
Heat Index: 54°   Visibility: 6mi
Dew Point: 46°   Wind: 30mph
Humidity: 77%   Direction: 210°SSW
Pressure: 29.44"   Gusts: NA
Location:  56.82°N, 5.11°W
Report Text: EGPE 251220Z 21026KT 9999 FEW035 12/08 Q0997
Loading
Personal Weather Stations






























Interactive Weather Map New forecast layout! Learn more

10-Day Weather Forecast

Advertisements
Track Severe Weather on mobile